Hartford, New York
Current Conditions -  °F | °C
As of 3:53 PM on Thursday 18 Dec 2014 (Local Time) from KGFL Reporting Station
Overcast Overcast  
Wind Chill: 31°   Ceiling: 3400
Heat Index: 36°   Visibility: 10mi
Dew Point: 26°   Wind: 6mph
Humidity: 67%   Direction: 10°N
Pressure: 29.88"   Gusts: NA
Location:  43.36°N, 73.39°W
Report Text: KGFL 182053Z AUTO 01005KT 10SM OVC034 02/M03 A2988 RMK AO2 SLP126 T00221033 53009
Loading
Personal Weather Stations






























Interactive Weather Map New forecast layout! Learn more

10-Day Weather Forecast

Advertisements
Track Severe Weather on mobile